sensor_id;sensor_type;location;lat;lon;timestamp;P1;durP1;ratioP1;P2;durP2;ratioP2
55150;SDS011;41041;43.162;20.538;2023-04-19T00:01:53;10.57;;;7.53;;
55150;SDS011;41041;43.162;20.538;2023-04-19T00:04:19;8.90;;;6.15;;
55150;SDS011;41041;43.162;20.538;2023-04-19T00:06:52;8.93;;;6.20;;
55150;SDS011;41041;43.162;20.538;2023-04-19T00:09:18;8.68;;;6.05;;
55150;SDS011;41041;43.162;20.538;2023-04-19T00:11:44;8.88;;;5.75;;
55150;SDS011;41041;43.162;20.538;2023-04-19T00:14:18;7.28;;;5.32;;
55150;SDS011;41041;43.162;20.538;2023-04-19T00:16:44;8.77;;;6.20;;
55150;SDS011;41041;43.162;20.538;2023-04-19T00:19:10;8.05;;;6.07;;
55150;SDS011;41041;43.162;20.538;2023-04-19T00:21:37;7.35;;;4.95;;
55150;SDS011;41041;43.162;20.538;2023-04-19T00:24:03;7.60;;;5.30;;
55150;SDS011;41041;43.162;20.538;2023-04-19T00:26:29;7.30;;;4.80;;
55150;SDS011;41041;43.162;20.538;2023-04-19T00:28:55;19.60;;;6.50;;
55150;SDS011;41041;43.162;20.538;2023-04-19T00:31:21;17.25;;;8.07;;
55150;SDS011;41041;43.162;20.538;2023-04-19T00:36:17;12.25;;;6.13;;
55150;SDS011;41041;43.162;20.538;2023-04-19T00:38:43;12.90;;;5.07;;
55150;SDS011;41041;43.162;20.538;2023-04-19T00:41:09;5.20;;;4.30;;
55150;SDS011;41041;43.162;20.538;2023-04-19T00:43:36;8.02;;;5.22;;
55150;SDS011;41041;43.162;20.538;2023-04-19T00:46:02;8.90;;;5.00;;
55150;SDS011;41041;43.162;20.538;2023-04-19T00:48:28;6.53;;;5.20;;
55150;SDS011;41041;43.162;20.538;2023-04-19T00:50:55;8.30;;;4.97;;
55150;SDS011;41041;43.162;20.538;2023-04-19T00:53:21;7.50;;;4.38;;
55150;SDS011;41041;43.162;20.538;2023-04-19T00:55:47;8.63;;;5.30;;
55150;SDS011;41041;43.162;20.538;2023-04-19T00:58:16;8.13;;;6.75;;
55150;SDS011;41041;43.162;20.538;2023-04-19T01:00:43;9.82;;;5.68;;
55150;SDS011;41041;43.162;20.538;2023-04-19T01:03:09;9.10;;;5.47;;
55150;SDS011;41041;43.162;20.538;2023-04-19T01:05:35;6.03;;;5.22;;
55150;SDS011;41041;43.162;20.538;2023-04-19T01:08:01;9.45;;;5.60;;
55150;SDS011;41041;43.162;20.538;2023-04-19T01:10:27;14.77;;;5.68;;
55150;SDS011;41041;43.162;20.538;2023-04-19T01:12:53;12.38;;;5.30;;
55150;SDS011;41041;43.162;20.538;2023-04-19T01:15:19;10.45;;;5.32;;
55150;SDS011;41041;43.162;20.538;2023-04-19T01:17:46;13.38;;;6.53;;
55150;SDS011;41041;43.162;20.538;2023-04-19T01:20:12;8.93;;;6.30;;
55150;SDS011;41041;43.162;20.538;2023-04-19T01:22:39;10.82;;;5.68;;
55150;SDS011;41041;43.162;20.538;2023-04-19T01:25:05;9.82;;;5.50;;
55150;SDS011;41041;43.162;20.538;2023-04-19T01:27:32;9.40;;;5.97;;
55150;SDS011;41041;43.162;20.538;2023-04-19T01:29:58;5.05;;;4.25;;
55150;SDS011;41041;43.162;20.538;2023-04-19T01:32:24;11.00;;;7.63;;
55150;SDS011;41041;43.162;20.538;2023-04-19T01:34:51;9.57;;;6.45;;
55150;SDS011;41041;43.162;20.538;2023-04-19T01:37:17;10.43;;;6.35;;
55150;SDS011;41041;43.162;20.538;2023-04-19T01:39:43;12.70;;;6.40;;
55150;SDS011;41041;43.162;20.538;2023-04-19T01:42:09;9.43;;;6.18;;
55150;SDS011;41041;43.162;20.538;2023-04-19T01:44:36;11.10;;;6.70;;
55150;SDS011;41041;43.162;20.538;2023-04-19T01:47:02;12.88;;;6.80;;
55150;SDS011;41041;43.162;20.538;2023-04-19T01:49:28;11.35;;;6.65;;
55150;SDS011;41041;43.162;20.538;2023-04-19T01:51:54;10.07;;;6.72;;
55150;SDS011;41041;43.162;20.538;2023-04-19T01:54:21;9.95;;;7.00;;
55150;SDS011;41041;43.162;20.538;2023-04-19T01:56:47;11.73;;;7.60;;
55150;SDS011;41041;43.162;20.538;2023-04-19T01:59:25;12.38;;;6.88;;
55150;SDS011;41041;43.162;20.538;2023-04-19T02:01:53;9.48;;;6.80;;
55150;SDS011;41041;43.162;20.538;2023-04-19T02:04:19;12.48;;;7.43;;
55150;SDS011;41041;43.162;20.538;2023-04-19T02:06:50;11.05;;;6.97;;
55150;SDS011;41041;43.162;20.538;2023-04-19T02:09:16;10.05;;;6.65;;
55150;SDS011;41041;43.162;20.538;2023-04-19T02:11:42;10.00;;;7.07;;
55150;SDS011;41041;43.162;20.538;2023-04-19T02:14:19;8.77;;;6.72;;
55150;SDS011;41041;43.162;20.538;2023-04-19T02:16:45;8.25;;;5.82;;
55150;SDS011;41041;43.162;20.538;2023-04-19T02:19:12;9.25;;;6.13;;
55150;SDS011;41041;43.162;20.538;2023-04-19T02:21:38;9.20;;;6.05;;
55150;SDS011;41041;43.162;20.538;2023-04-19T02:24:06;10.00;;;5.68;;
55150;SDS011;41041;43.162;20.538;2023-04-19T02:26:32;8.15;;;6.00;;
55150;SDS011;41041;43.162;20.538;2023-04-19T02:28:58;8.00;;;5.28;;
55150;SDS011;41041;43.162;20.538;2023-04-19T02:36:22;8.00;;;5.75;;
55150;SDS011;41041;43.162;20.538;2023-04-19T02:38:48;13.43;;;6.47;;
55150;SDS011;41041;43.162;20.538;2023-04-19T02:41:14;10.25;;;6.10;;
55150;SDS011;41041;43.162;20.538;2023-04-19T02:43:40;12.52;;;6.47;;
55150;SDS011;41041;43.162;20.538;2023-04-19T02:46:08;9.63;;;6.00;;
55150;SDS011;41041;43.162;20.538;2023-04-19T02:48:34;11.20;;;6.45;;
55150;SDS011;41041;43.162;20.538;2023-04-19T02:51:01;7.80;;;6.03;;
55150;SDS011;41041;43.162;20.538;2023-04-19T02:53:27;11.07;;;7.35;;
55150;SDS011;41041;43.162;20.538;2023-04-19T02:55:53;8.95;;;5.78;;
55150;SDS011;41041;43.162;20.538;2023-04-19T02:58:19;12.38;;;6.30;;
55150;SDS011;41041;43.162;20.538;2023-04-19T03:00:45;12.82;;;6.32;;
55150;SDS011;41041;43.162;20.538;2023-04-19T03:03:11;13.13;;;7.00;;
55150;SDS011;41041;43.162;20.538;2023-04-19T03:05:37;11.40;;;7.05;;
55150;SDS011;41041;43.162;20.538;2023-04-19T03:08:03;13.27;;;7.22;;
55150;SDS011;41041;43.162;20.538;2023-04-19T03:10:29;12.02;;;7.75;;
55150;SDS011;41041;43.162;20.538;2023-04-19T03:12:55;10.80;;;7.55;;
55150;SDS011;41041;43.162;20.538;2023-04-19T03:15:21;11.35;;;7.32;;
55150;SDS011;41041;43.162;20.538;2023-04-19T03:17:47;12.25;;;7.68;;
55150;SDS011;41041;43.162;20.538;2023-04-19T03:20:14;10.45;;;7.03;;
55150;SDS011;41041;43.162;20.538;2023-04-19T03:22:41;12.25;;;6.78;;
55150;SDS011;41041;43.162;20.538;2023-04-19T03:25:07;10.85;;;6.32;;
55150;SDS011;41041;43.162;20.538;2023-04-19T03:27:36;10.05;;;6.25;;
55150;SDS011;41041;43.162;20.538;2023-04-19T03:30:02;10.85;;;6.57;;
55150;SDS011;41041;43.162;20.538;2023-04-19T03:32:29;11.18;;;6.88;;
55150;SDS011;41041;43.162;20.538;2023-04-19T03:34:55;10.45;;;6.63;;
55150;SDS011;41041;43.162;20.538;2023-04-19T03:37:22;11.25;;;6.05;;
55150;SDS011;41041;43.162;20.538;2023-04-19T03:39:48;12.43;;;6.15;;
55150;SDS011;41041;43.162;20.538;2023-04-19T03:42:14;9.98;;;5.72;;
55150;SDS011;41041;43.162;20.538;2023-04-19T03:44:40;8.52;;;5.63;;
55150;SDS011;41041;43.162;20.538;2023-04-19T03:47:06;9.38;;;6.47;;
55150;SDS011;41041;43.162;20.538;2023-04-19T03:49:32;14.95;;;7.10;;
55150;SDS011;41041;43.162;20.538;2023-04-19T03:51:58;11.95;;;7.00;;
55150;SDS011;41041;43.162;20.538;2023-04-19T03:54:24;14.65;;;8.50;;
55150;SDS011;41041;43.162;20.538;2023-04-19T03:56:51;13.23;;;8.02;;
55150;SDS011;41041;43.162;20.538;2023-04-19T03:59:17;11.50;;;7.22;;
55150;SDS011;41041;43.162;20.538;2023-04-19T04:01:43;11.25;;;7.78;;
55150;SDS011;41041;43.162;20.538;2023-04-19T04:04:09;13.80;;;7.53;;
55150;SDS011;41041;43.162;20.538;2023-04-19T04:06:38;16.27;;;9.18;;
55150;SDS011;41041;43.162;20.538;2023-04-19T04:09:04;10.80;;;7.25;;
55150;SDS011;41041;43.162;20.538;2023-04-19T04:11:30;8.85;;;6.75;;
55150;SDS011;41041;43.162;20.538;2023-04-19T04:13:56;12.82;;;6.95;;
55150;SDS011;41041;43.162;20.538;2023-04-19T04:16:24;11.05;;;7.15;;
55150;SDS011;41041;43.162;20.538;2023-04-19T04:18:50;12.40;;;6.70;;
55150;SDS011;41041;43.162;20.538;2023-04-19T04:21:16;12.00;;;6.68;;
55150;SDS011;41041;43.162;20.538;2023-04-19T04:23:42;12.20;;;7.00;;
55150;SDS011;41041;43.162;20.538;2023-04-19T04:28:58;11.43;;;6.20;;
55150;SDS011;41041;43.162;20.538;2023-04-19T04:31:26;9.45;;;6.72;;
55150;SDS011;41041;43.162;20.538;2023-04-19T04:33:53;16.60;;;6.40;;
55150;SDS011;41041;43.162;20.538;2023-04-19T04:36:19;10.65;;;6.13;;
55150;SDS011;41041;43.162;20.538;2023-04-19T04:39:00;16.85;;;7.25;;
55150;SDS011;41041;43.162;20.538;2023-04-19T04:41:26;14.50;;;6.80;;
55150;SDS011;41041;43.162;20.538;2023-04-19T04:43:55;12.65;;;6.38;;
55150;SDS011;41041;43.162;20.538;2023-04-19T04:46:23;13.73;;;8.98;;
55150;SDS011;41041;43.162;20.538;2023-04-19T04:48:50;13.20;;;7.95;;
55150;SDS011;41041;43.162;20.538;2023-04-19T04:51:16;13.23;;;7.20;;
55150;SDS011;41041;43.162;20.538;2023-04-19T04:53:43;13.15;;;6.55;;
55150;SDS011;41041;43.162;20.538;2023-04-19T04:56:09;12.00;;;6.90;;
55150;SDS011;41041;43.162;20.538;2023-04-19T04:58:35;12.93;;;7.28;;
55150;SDS011;41041;43.162;20.538;2023-04-19T05:01:01;26.10;;;13.93;;
55150;SDS011;41041;43.162;20.538;2023-04-19T05:03:27;34.45;;;15.25;;
55150;SDS011;41041;43.162;20.538;2023-04-19T05:05:53;34.75;;;19.17;;
55150;SDS011;41041;43.162;20.538;2023-04-19T05:08:20;38.17;;;22.52;;
55150;SDS011;41041;43.162;20.538;2023-04-19T05:10:46;39.20;;;21.27;;
55150;SDS011;41041;43.162;20.538;2023-04-19T05:13:12;79.65;;;47.40;;
55150;SDS011;41041;43.162;20.538;2023-04-19T05:15:38;32.35;;;20.08;;
55150;SDS011;41041;43.162;20.538;2023-04-19T05:18:04;21.73;;;13.05;;
55150;SDS011;41041;43.162;20.538;2023-04-19T05:20:31;19.23;;;11.15;;
55150;SDS011;41041;43.162;20.538;2023-04-19T05:23:00;22.58;;;12.07;;
55150;SDS011;41041;43.162;20.538;2023-04-19T05:25:27;22.35;;;12.52;;
55150;SDS011;41041;43.162;20.538;2023-04-19T05:27:53;31.08;;;12.85;;
55150;SDS011;41041;43.162;20.538;2023-04-19T05:32:57;26.85;;;11.98;;
55150;SDS011;41041;43.162;20.538;2023-04-19T05:35:24;23.65;;;12.85;;
55150;SDS011;41041;43.162;20.538;2023-04-19T05:37:54;24.77;;;13.82;;
55150;SDS011;41041;43.162;20.538;2023-04-19T05:40:20;21.15;;;14.18;;
55150;SDS011;41041;43.162;20.538;2023-04-19T05:42:48;25.25;;;14.40;;
55150;SDS011;41041;43.162;20.538;2023-04-19T05:45:14;26.88;;;14.25;;
55150;SDS011;41041;43.162;20.538;2023-04-19T05:47:42;26.85;;;14.75;;
55150;SDS011;41041;43.162;20.538;2023-04-19T05:50:08;28.83;;;14.38;;
55150;SDS011;41041;43.162;20.538;2023-04-19T05:52:35;42.03;;;15.48;;
55150;SDS011;41041;43.162;20.538;2023-04-19T05:55:01;33.53;;;17.45;;
55150;SDS011;41041;43.162;20.538;2023-04-19T05:57:27;41.03;;;20.10;;
55150;SDS011;41041;43.162;20.538;2023-04-19T05:59:53;41.35;;;22.08;;
55150;SDS011;41041;43.162;20.538;2023-04-19T06:02:19;31.30;;;18.85;;
55150;SDS011;41041;43.162;20.538;2023-04-19T06:04:45;31.23;;;16.73;;
55150;SDS011;41041;43.162;20.538;2023-04-19T06:07:11;21.55;;;14.93;;
55150;SDS011;41041;43.162;20.538;2023-04-19T06:09:37;25.65;;;13.75;;
55150;SDS011;41041;43.162;20.538;2023-04-19T06:12:03;21.80;;;14.18;;
55150;SDS011;41041;43.162;20.538;2023-04-19T06:14:30;21.15;;;14.27;;
55150;SDS011;41041;43.162;20.538;2023-04-19T06:16:57;24.95;;;12.68;;
55150;SDS011;41041;43.162;20.538;2023-04-19T06:19:23;21.42;;;13.15;;
55150;SDS011;41041;43.162;20.538;2023-04-19T06:21:50;22.02;;;13.35;;
55150;SDS011;41041;43.162;20.538;2023-04-19T06:24:16;21.52;;;13.15;;
55150;SDS011;41041;43.162;20.538;2023-04-19T06:26:42;26.08;;;14.88;;
55150;SDS011;41041;43.162;20.538;2023-04-19T06:29:08;24.77;;;13.60;;
55150;SDS011;41041;43.162;20.538;2023-04-19T06:31:34;16.23;;;10.82;;
55150;SDS011;41041;43.162;20.538;2023-04-19T06:34:00;13.32;;;9.38;;
55150;SDS011;41041;43.162;20.538;2023-04-19T06:36:26;16.90;;;9.55;;
55150;SDS011;41041;43.162;20.538;2023-04-19T06:38:52;22.15;;;10.32;;
55150;SDS011;41041;43.162;20.538;2023-04-19T06:41:18;12.55;;;8.70;;
55150;SDS011;41041;43.162;20.538;2023-04-19T06:43:44;12.45;;;8.27;;
55150;SDS011;41041;43.162;20.538;2023-04-19T06:46:10;14.35;;;8.07;;
55150;SDS011;41041;43.162;20.538;2023-04-19T06:48:38;14.95;;;8.48;;
55150;SDS011;41041;43.162;20.538;2023-04-19T06:51:04;17.90;;;8.73;;
55150;SDS011;41041;43.162;20.538;2023-04-19T06:53:30;21.15;;;9.80;;
55150;SDS011;41041;43.162;20.538;2023-04-19T06:56:00;26.48;;;10.32;;
55150;SDS011;41041;43.162;20.538;2023-04-19T06:58:26;14.68;;;9.80;;
55150;SDS011;41041;43.162;20.538;2023-04-19T07:00:53;18.02;;;9.40;;
55150;SDS011;41041;43.162;20.538;2023-04-19T07:03:19;20.55;;;9.90;;
55150;SDS011;41041;43.162;20.538;2023-04-19T07:05:45;15.10;;;9.10;;
55150;SDS011;41041;43.162;20.538;2023-04-19T07:08:11;15.38;;;10.45;;
55150;SDS011;41041;43.162;20.538;2023-04-19T07:10:38;14.60;;;9.68;;
55150;SDS011;41041;43.162;20.538;2023-04-19T07:13:04;16.70;;;9.30;;
55150;SDS011;41041;43.162;20.538;2023-04-19T07:15:30;18.48;;;10.00;;
55150;SDS011;41041;43.162;20.538;2023-04-19T07:17:56;14.50;;;10.30;;
55150;SDS011;41041;43.162;20.538;2023-04-19T07:20:21;15.02;;;10.27;;
55150;SDS011;41041;43.162;20.538;2023-04-19T07:22:47;15.70;;;10.15;;
55150;SDS011;41041;43.162;20.538;2023-04-19T07:25:13;16.27;;;10.30;;
55150;SDS011;41041;43.162;20.538;2023-04-19T07:27:39;13.43;;;10.40;;
55150;SDS011;41041;43.162;20.538;2023-04-19T07:30:05;13.95;;;9.45;;
55150;SDS011;41041;43.162;20.538;2023-04-19T07:32:31;16.23;;;10.13;;
55150;SDS011;41041;43.162;20.538;2023-04-19T07:34:59;19.92;;;11.00;;
55150;SDS011;41041;43.162;20.538;2023-04-19T07:37:25;17.15;;;9.55;;
55150;SDS011;41041;43.162;20.538;2023-04-19T07:39:52;19.30;;;9.57;;
55150;SDS011;41041;43.162;20.538;2023-04-19T07:42:20;17.67;;;8.98;;
55150;SDS011;41041;43.162;20.538;2023-04-19T07:44:46;15.25;;;9.57;;
55150;SDS011;41041;43.162;20.538;2023-04-19T08:26:14;14.20;;;8.02;;
55150;SDS011;41041;43.162;20.538;2023-04-19T08:28:39;12.38;;;8.13;;
55150;SDS011;41041;43.162;20.538;2023-04-19T08:31:08;10.90;;;7.80;;
55150;SDS011;41041;43.162;20.538;2023-04-19T08:33:46;10.68;;;8.38;;
55150;SDS011;41041;43.162;20.538;2023-04-19T08:36:12;13.90;;;8.95;;
55150;SDS011;41041;43.162;20.538;2023-04-19T08:38:38;15.02;;;9.75;;
55150;SDS011;41041;43.162;20.538;2023-04-19T08:41:05;14.25;;;9.25;;
55150;SDS011;41041;43.162;20.538;2023-04-19T08:43:32;12.35;;;9.15;;
55150;SDS011;41041;43.162;20.538;2023-04-19T08:46:00;16.10;;;9.65;;
55150;SDS011;41041;43.162;20.538;2023-04-19T08:48:28;14.15;;;10.65;;
55150;SDS011;41041;43.162;20.538;2023-04-19T08:50:58;14.93;;;10.10;;
55150;SDS011;41041;43.162;20.538;2023-04-19T08:53:27;12.45;;;9.13;;
55150;SDS011;41041;43.162;20.538;2023-04-19T08:55:53;9.45;;;8.07;;
55150;SDS011;41041;43.162;20.538;2023-04-19T08:58:23;10.77;;;8.02;;
55150;SDS011;41041;43.162;20.538;2023-04-19T09:00:50;12.80;;;8.52;;
55150;SDS011;41041;43.162;20.538;2023-04-19T09:03:15;13.50;;;9.50;;
55150;SDS011;41041;43.162;20.538;2023-04-19T09:05:41;13.75;;;8.43;;
55150;SDS011;41041;43.162;20.538;2023-04-19T09:08:20;11.45;;;7.28;;
55150;SDS011;41041;43.162;20.538;2023-04-19T09:10:57;8.25;;;6.30;;
55150;SDS011;41041;43.162;20.538;2023-04-19T09:13:24;8.82;;;6.32;;
55150;SDS011;41041;43.162;20.538;2023-04-19T09:15:51;7.97;;;6.15;;
55150;SDS011;41041;43.162;20.538;2023-04-19T09:18:21;8.27;;;6.40;;
55150;SDS011;41041;43.162;20.538;2023-04-19T09:20:49;8.93;;;7.10;;
55150;SDS011;41041;43.162;20.538;2023-04-19T09:23:16;8.77;;;7.15;;
55150;SDS011;41041;43.162;20.538;2023-04-19T09:26:01;9.27;;;7.40;;
55150;SDS011;41041;43.162;20.538;2023-04-19T09:28:29;9.48;;;7.50;;
55150;SDS011;41041;43.162;20.538;2023-04-19T09:30:57;10.18;;;7.57;;
55150;SDS011;41041;43.162;20.538;2023-04-19T09:33:35;10.15;;;7.40;;
55150;SDS011;41041;43.162;20.538;2023-04-19T09:36:06;9.55;;;7.22;;
55150;SDS011;41041;43.162;20.538;2023-04-19T09:41:30;8.98;;;6.43;;
55150;SDS011;41041;43.162;20.538;2023-04-19T09:44:10;7.63;;;6.18;;
55150;SDS011;41041;43.162;20.538;2023-04-19T09:46:39;8.88;;;6.72;;
55150;SDS011;41041;43.162;20.538;2023-04-19T09:49:15;7.72;;;5.90;;
55150;SDS011;41041;43.162;20.538;2023-04-19T09:51:56;12.93;;;6.40;;
55150;SDS011;41041;43.162;20.538;2023-04-19T09:54:24;11.57;;;5.55;;
55150;SDS011;41041;43.162;20.538;2023-04-19T09:56:56;16.63;;;5.85;;
55150;SDS011;41041;43.162;20.538;2023-04-19T09:59:22;21.67;;;4.65;;
55150;SDS011;41041;43.162;20.538;2023-04-19T10:01:53;8.65;;;5.95;;
55150;SDS011;41041;43.162;20.538;2023-04-19T10:04:21;7.13;;;4.85;;
55150;SDS011;41041;43.162;20.538;2023-04-19T10:06:52;13.18;;;6.72;;
55150;SDS011;41041;43.162;20.538;2023-04-19T10:09:21;9.52;;;4.75;;
55150;SDS011;41041;43.162;20.538;2023-04-19T10:11:48;8.02;;;4.32;;
55150;SDS011;41041;43.162;20.538;2023-04-19T10:14:15;5.93;;;3.20;;
55150;SDS011;41041;43.162;20.538;2023-04-19T10:16:41;6.57;;;4.00;;
55150;SDS011;41041;43.162;20.538;2023-04-19T10:19:08;7.47;;;4.07;;
55150;SDS011;41041;43.162;20.538;2023-04-19T10:21:36;5.20;;;3.83;;
55150;SDS011;41041;43.162;20.538;2023-04-19T10:24:03;7.03;;;3.65;;
55150;SDS011;41041;43.162;20.538;2023-04-19T10:26:29;6.05;;;3.90;;
55150;SDS011;41041;43.162;20.538;2023-04-19T10:28:55;5.32;;;3.47;;
55150;SDS011;41041;43.162;20.538;2023-04-19T10:31:23;5.38;;;3.97;;
55150;SDS011;41041;43.162;20.538;2023-04-19T10:33:50;5.43;;;3.30;;
55150;SDS011;41041;43.162;20.538;2023-04-19T10:36:16;6.35;;;3.20;;
55150;SDS011;41041;43.162;20.538;2023-04-19T10:38:47;6.07;;;4.32;;
55150;SDS011;41041;43.162;20.538;2023-04-19T10:41:17;8.40;;;5.37;;
55150;SDS011;41041;43.162;20.538;2023-04-19T10:43:44;13.05;;;7.10;;
55150;SDS011;41041;43.162;20.538;2023-04-19T10:48:55;14.45;;;9.18;;
55150;SDS011;41041;43.162;20.538;2023-04-19T10:51:25;11.65;;;7.07;;
55150;SDS011;41041;43.162;20.538;2023-04-19T10:59:23;5.05;;;3.70;;
55150;SDS011;41041;43.162;20.538;2023-04-19T11:01:54;6.68;;;3.83;;
55150;SDS011;41041;43.162;20.538;2023-04-19T11:09:23;15.55;;;9.93;;
55150;SDS011;41041;43.162;20.538;2023-04-19T11:11:49;9.50;;;5.10;;
55150;SDS011;41041;43.162;20.538;2023-04-19T11:14:16;7.50;;;4.88;;
55150;SDS011;41041;43.162;20.538;2023-04-19T11:16:42;7.60;;;4.88;;
55150;SDS011;41041;43.162;20.538;2023-04-19T11:19:19;9.35;;;4.30;;
55150;SDS011;41041;43.162;20.538;2023-04-19T11:21:46;6.45;;;4.20;;
55150;SDS011;41041;43.162;20.538;2023-04-19T11:24:12;4.97;;;3.40;;
55150;SDS011;41041;43.162;20.538;2023-04-19T11:26:46;4.87;;;3.40;;
55150;SDS011;41041;43.162;20.538;2023-04-19T11:29:12;5.75;;;3.72;;
55150;SDS011;41041;43.162;20.538;2023-04-19T11:31:38;7.32;;;4.55;;
55150;SDS011;41041;43.162;20.538;2023-04-19T11:34:05;6.63;;;3.92;;
55150;SDS011;41041;43.162;20.538;2023-04-19T11:36:33;9.68;;;5.00;;
55150;SDS011;41041;43.162;20.538;2023-04-19T11:39:01;9.20;;;4.60;;
55150;SDS011;41041;43.162;20.538;2023-04-19T11:41:38;6.43;;;4.40;;
55150;SDS011;41041;43.162;20.538;2023-04-19T11:44:17;14.05;;;8.00;;
55150;SDS011;41041;43.162;20.538;2023-04-19T11:46:57;6.13;;;3.47;;
55150;SDS011;41041;43.162;20.538;2023-04-19T11:49:30;9.82;;;7.20;;
55150;SDS011;41041;43.162;20.538;2023-04-19T11:51:57;10.15;;;7.68;;
55150;SDS011;41041;43.162;20.538;2023-04-19T11:54:24;12.95;;;8.52;;
55150;SDS011;41041;43.162;20.538;2023-04-19T11:57:03;11.70;;;7.30;;
55150;SDS011;41041;43.162;20.538;2023-04-19T11:59:30;14.35;;;7.78;;
55150;SDS011;41041;43.162;20.538;2023-04-19T12:02:07;14.55;;;9.52;;
55150;SDS011;41041;43.162;20.538;2023-04-19T12:07:04;5.07;;;2.50;;
55150;SDS011;41041;43.162;20.538;2023-04-19T12:09:31;3.55;;;2.10;;
55150;SDS011;41041;43.162;20.538;2023-04-19T12:11:58;3.45;;;1.75;;
55150;SDS011;41041;43.162;20.538;2023-04-19T12:14:27;1.80;;;1.27;;
55150;SDS011;41041;43.162;20.538;2023-04-19T12:17:09;2.35;;;1.70;;
55150;SDS011;41041;43.162;20.538;2023-04-19T12:19:45;1.30;;;0.77;;
55150;SDS011;41041;43.162;20.538;2023-04-19T12:24:39;2.13;;;1.40;;
55150;SDS011;41041;43.162;20.538;2023-04-19T12:27:06;1.85;;;1.17;;
55150;SDS011;41041;43.162;20.538;2023-04-19T12:29:32;4.55;;;2.05;;
55150;SDS011;41041;43.162;20.538;2023-04-19T12:31:58;6.22;;;2.63;;
55150;SDS011;41041;43.162;20.538;2023-04-19T12:34:25;5.00;;;2.75;;
55150;SDS011;41041;43.162;20.538;2023-04-19T12:36:51;3.78;;;2.05;;
55150;SDS011;41041;43.162;20.538;2023-04-19T12:39:19;2.58;;;1.85;;
55150;SDS011;41041;43.162;20.538;2023-04-19T12:41:45;6.78;;;3.35;;
55150;SDS011;41041;43.162;20.538;2023-04-19T12:44:14;3.65;;;2.45;;
55150;SDS011;41041;43.162;20.538;2023-04-19T12:46:40;3.33;;;2.45;;
55150;SDS011;41041;43.162;20.538;2023-04-19T12:49:07;4.13;;;2.47;;
55150;SDS011;41041;43.162;20.538;2023-04-19T12:51:33;4.18;;;2.97;;
55150;SDS011;41041;43.162;20.538;2023-04-19T12:54:00;3.25;;;1.70;;
55150;SDS011;41041;43.162;20.538;2023-04-19T12:58:59;5.53;;;2.67;;
55150;SDS011;41041;43.162;20.538;2023-04-19T13:01:25;20.92;;;12.35;;
55150;SDS011;41041;43.162;20.538;2023-04-19T13:03:51;3.67;;;2.20;;
55150;SDS011;41041;43.162;20.538;2023-04-19T13:06:17;4.22;;;3.00;;
55150;SDS011;41041;43.162;20.538;2023-04-19T13:08:42;4.60;;;1.95;;
55150;SDS011;41041;43.162;20.538;2023-04-19T13:11:08;3.70;;;2.35;;
55150;SDS011;41041;43.162;20.538;2023-04-19T13:13:34;3.50;;;2.35;;
55150;SDS011;41041;43.162;20.538;2023-04-19T13:16:00;4.95;;;3.13;;
55150;SDS011;41041;43.162;20.538;2023-04-19T13:18:26;4.07;;;2.90;;
55150;SDS011;41041;43.162;20.538;2023-04-19T13:20:53;5.13;;;3.60;;
55150;SDS011;41041;43.162;20.538;2023-04-19T13:23:19;4.50;;;3.13;;
55150;SDS011;41041;43.162;20.538;2023-04-19T13:25:45;5.43;;;3.75;;
55150;SDS011;41041;43.162;20.538;2023-04-19T13:28:11;5.03;;;3.10;;
55150;SDS011;41041;43.162;20.538;2023-04-19T13:30:37;4.75;;;3.15;;
55150;SDS011;41041;43.162;20.538;2023-04-19T13:33:03;5.68;;;3.97;;
55150;SDS011;41041;43.162;20.538;2023-04-19T13:35:29;6.95;;;3.40;;
55150;SDS011;41041;43.162;20.538;2023-04-19T13:37:55;6.55;;;3.42;;
55150;SDS011;41041;43.162;20.538;2023-04-19T13:40:22;5.22;;;3.42;;
55150;SDS011;41041;43.162;20.538;2023-04-19T13:42:48;4.18;;;2.75;;
55150;SDS011;41041;43.162;20.538;2023-04-19T13:45:14;3.97;;;2.60;;
55150;SDS011;41041;43.162;20.538;2023-04-19T13:50:12;5.18;;;3.10;;
55150;SDS011;41041;43.162;20.538;2023-04-19T13:52:39;3.90;;;2.83;;
55150;SDS011;41041;43.162;20.538;2023-04-19T13:55:14;6.60;;;3.92;;
55150;SDS011;41041;43.162;20.538;2023-04-19T13:57:40;8.25;;;5.20;;
55150;SDS011;41041;43.162;20.538;2023-04-19T14:00:07;9.60;;;5.88;;
55150;SDS011;41041;43.162;20.538;2023-04-19T14:02:33;6.20;;;3.80;;
55150;SDS011;41041;43.162;20.538;2023-04-19T14:04:59;8.27;;;3.00;;
55150;SDS011;41041;43.162;20.538;2023-04-19T14:07:25;6.90;;;3.85;;
55150;SDS011;41041;43.162;20.538;2023-04-19T14:09:50;5.30;;;2.83;;
55150;SDS011;41041;43.162;20.538;2023-04-19T14:12:16;5.03;;;2.90;;
55150;SDS011;41041;43.162;20.538;2023-04-19T14:14:42;8.68;;;5.28;;
55150;SDS011;41041;43.162;20.538;2023-04-19T14:17:11;13.07;;;6.28;;
55150;SDS011;41041;43.162;20.538;2023-04-19T14:19:37;7.10;;;4.30;;
55150;SDS011;41041;43.162;20.538;2023-04-19T14:22:12;9.27;;;4.80;;
55150;SDS011;41041;43.162;20.538;2023-04-19T14:24:38;8.35;;;4.88;;
55150;SDS011;41041;43.162;20.538;2023-04-19T14:27:04;5.95;;;3.72;;
55150;SDS011;41041;43.162;20.538;2023-04-19T14:29:30;4.85;;;3.50;;
55150;SDS011;41041;43.162;20.538;2023-04-19T14:31:56;7.78;;;3.75;;
55150;SDS011;41041;43.162;20.538;2023-04-19T14:34:24;11.02;;;4.03;;
55150;SDS011;41041;43.162;20.538;2023-04-19T14:36:50;8.60;;;3.90;;
55150;SDS011;41041;43.162;20.538;2023-04-19T14:39:16;7.70;;;3.85;;
55150;SDS011;41041;43.162;20.538;2023-04-19T14:41:56;6.88;;;4.57;;
55150;SDS011;41041;43.162;20.538;2023-04-19T14:44:22;8.73;;;5.30;;
55150;SDS011;41041;43.162;20.538;2023-04-19T14:46:48;11.45;;;6.03;;
55150;SDS011;41041;43.162;20.538;2023-04-19T14:49:15;11.90;;;6.03;;
55150;SDS011;41041;43.162;20.538;2023-04-19T14:51:44;11.35;;;6.50;;
55150;SDS011;41041;43.162;20.538;2023-04-19T14:54:11;12.82;;;7.25;;
55150;SDS011;41041;43.162;20.538;2023-04-19T14:56:37;5.85;;;4.47;;
55150;SDS011;41041;43.162;20.538;2023-04-19T14:59:06;9.15;;;5.50;;
55150;SDS011;41041;43.162;20.538;2023-04-19T15:01:32;6.13;;;4.30;;
55150;SDS011;41041;43.162;20.538;2023-04-19T15:04:04;7.55;;;4.35;;
55150;SDS011;41041;43.162;20.538;2023-04-19T15:08:56;36.47;;;19.52;;
55150;SDS011;41041;43.162;20.538;2023-04-19T15:11:23;21.33;;;12.75;;
55150;SDS011;41041;43.162;20.538;2023-04-19T15:13:49;14.10;;;7.40;;
55150;SDS011;41041;43.162;20.538;2023-04-19T15:16:15;9.48;;;5.78;;
55150;SDS011;41041;43.162;20.538;2023-04-19T15:18:41;9.90;;;4.82;;
55150;SDS011;41041;43.162;20.538;2023-04-19T15:21:07;17.00;;;6.90;;
55150;SDS011;41041;43.162;20.538;2023-04-19T15:23:33;10.43;;;6.50;;
55150;SDS011;41041;43.162;20.538;2023-04-19T15:26:00;21.23;;;15.45;;
55150;SDS011;41041;43.162;20.538;2023-04-19T15:28:26;20.85;;;12.18;;
55150;SDS011;41041;43.162;20.538;2023-04-19T15:30:56;11.65;;;8.68;;
55150;SDS011;41041;43.162;20.538;2023-04-19T15:33:23;11.10;;;7.22;;
55150;SDS011;41041;43.162;20.538;2023-04-19T15:35:52;14.40;;;7.40;;
55150;SDS011;41041;43.162;20.538;2023-04-19T15:38:22;12.63;;;7.45;;
55150;SDS011;41041;43.162;20.538;2023-04-19T15:40:49;18.92;;;7.93;;
55150;SDS011;41041;43.162;20.538;2023-04-19T15:43:16;23.23;;;15.73;;
55150;SDS011;41041;43.162;20.538;2023-04-19T15:45:42;32.30;;;19.88;;
55150;SDS011;41041;43.162;20.538;2023-04-19T15:48:09;43.08;;;22.23;;